createdAt,value
2023-05-08T00:00:19.905Z,101391.06
2023-05-08T00:00:43.042Z,101398.81
2023-05-08T00:01:04.696Z,101402.38
2023-05-08T00:01:26.408Z,101396.03
2023-05-08T00:01:48.446Z,101405.81
2023-05-08T00:02:11.122Z,101398.53
2023-05-08T00:02:33.178Z,101401.31
2023-05-08T00:02:55.173Z,101400.44
2023-05-08T00:03:16.996Z,101402.19
2023-05-08T00:03:39.889Z,101395.75
2023-05-08T00:04:02.070Z,101400.38
2023-05-08T00:04:24.015Z,101402.19
2023-05-08T00:04:45.843Z,101399.50
2023-05-08T00:05:08.057Z,101389.84
2023-05-08T00:05:30.960Z,101406.88
2023-05-08T00:05:55.325Z,101406.00
2023-05-08T00:06:16.962Z,101397.13
2023-05-08T00:06:41.188Z,101400.81
2023-05-08T00:07:03.327Z,101399.94
2023-05-08T00:07:29.534Z,101394.81
2023-05-08T00:07:52.214Z,101392.25
2023-05-08T00:08:13.983Z,101393.69
2023-05-08T00:08:36.016Z,101398.00
2023-05-08T00:08:57.655Z,101398.88
2023-05-08T00:09:22.059Z,101404.28
2023-05-08T00:09:51.200Z,101403.41
2023-05-08T00:10:14.577Z,101397.13
2023-05-08T00:10:38.966Z,101401.50
2023-05-08T00:11:02.940Z,101393.59
2023-05-08T00:11:25.654Z,101400.91
2023-05-08T00:11:48.503Z,101401.84
2023-05-08T00:12:11.413Z,101408.09
2023-05-08T00:12:34.373Z,101403.66
2023-05-08T00:12:56.220Z,101394.91
2023-05-08T00:13:19.703Z,101401.09
2023-05-08T00:13:41.946Z,101401.09
2023-05-08T00:14:04.627Z,101399.16
2023-05-08T00:14:29.330Z,101400.91
2023-05-08T00:14:53.148Z,101405.34
2023-05-08T00:15:19.188Z,101411.47
2023-05-08T00:15:43.194Z,101400.69
2023-05-08T00:16:06.183Z,101401.69
2023-05-08T00:16:28.149Z,101402.53
2023-05-08T00:16:51.489Z,101406.09
2023-05-08T00:17:14.106Z,101411.59
2023-05-08T00:17:35.809Z,101407.06
2023-05-08T00:17:57.613Z,101401.69
2023-05-08T00:18:19.223Z,101406.09
2023-05-08T00:18:41.748Z,101398.28
2023-05-08T00:19:03.729Z,101402.63
2023-05-08T00:19:25.656Z,101409.84
2023-05-08T00:19:47.239Z,101404.47
2023-05-08T00:20:09.953Z,101406.19
2023-05-08T00:20:34.293Z,101412.53
2023-05-08T00:20:55.940Z,101405.34
2023-05-08T00:21:17.774Z,101412.63
2023-05-08T00:21:39.792Z,101407.34
2023-05-08T00:22:01.533Z,101409.06
2023-05-08T00:22:24.534Z,101412.63
2023-05-08T00:22:46.265Z,101402.16
2023-05-08T00:23:08.190Z,101411.84
2023-05-08T00:23:29.839Z,101410.88
2023-05-08T00:23:52.846Z,101408.97
2023-05-08T00:24:14.489Z,101402.13
2023-05-08T00:24:36.093Z,101410.72
2023-05-08T00:24:57.752Z,101408.97
2023-05-08T00:25:20.686Z,101410.72
2023-05-08T00:25:43.551Z,101408.19
2023-05-08T00:26:05.494Z,101410.72
2023-05-08T00:27:23.965Z,101411.09
2023-05-08T00:27:45.859Z,101404.09
2023-05-08T00:28:07.428Z,101411.28
2023-05-08T00:28:29.123Z,101412.25
2023-05-08T00:28:51.969Z,101410.50
2023-05-08T00:29:13.581Z,101408.84
2023-05-08T00:29:35.177Z,101414.16
2023-05-08T00:29:57.394Z,101412.31
2023-05-08T00:30:19.212Z,101412.31
2023-05-08T00:30:42.455Z,101410.69
2023-05-08T00:31:04.179Z,101410.41
2023-05-08T00:31:26.288Z,101413.13
2023-05-08T00:31:47.888Z,101423.00
2023-05-08T00:32:10.794Z,101415.00
2023-05-08T00:32:32.508Z,101417.53
2023-05-08T00:32:54.561Z,101412.16
2023-05-08T00:33:16.698Z,101412.16
2023-05-08T00:33:38.303Z,101411.22
2023-05-08T00:34:01.856Z,101419.28
2023-05-08T00:34:23.520Z,101412.16
2023-05-08T00:34:45.186Z,101410.22
2023-05-08T00:35:07.431Z,101408.53
2023-05-08T00:35:30.013Z,101418.41
2023-05-08T00:35:59.144Z,101412.88
2023-05-08T00:36:20.784Z,101411.09
2023-05-08T00:36:42.402Z,101406.09
2023-05-08T00:37:05.055Z,101409.31
2023-05-08T00:37:26.713Z,101416.44
2023-05-08T00:37:48.316Z,101418.19
2023-05-08T00:38:10.423Z,101418.19
2023-05-08T00:38:32.890Z,101409.31
2023-05-08T00:38:55.507Z,101419.19
2023-05-08T00:39:17.335Z,101420.09
2023-05-08T00:39:38.941Z,101417.47
2023-05-08T00:40:00.829Z,101422.00
2023-05-08T00:40:24.256Z,101409.47
2023-05-08T00:40:46.825Z,101411.22
2023-05-08T00:41:08.428Z,101422.00
2023-05-08T00:41:30.071Z,101405.81
2023-05-08T00:41:51.737Z,101411.22
2023-05-08T00:42:14.345Z,101405.97
2023-05-08T00:42:35.932Z,101406.31
2023-05-08T00:42:57.543Z,101415.81
2023-05-08T00:43:19.649Z,101421.19
2023-05-08T00:43:42.245Z,101416.69
2023-05-08T00:44:04.044Z,101419.44
2023-05-08T00:44:26.635Z,101417.47
2023-05-08T00:44:48.315Z,101416.59
2023-05-08T00:45:10.502Z,101420.25
2023-05-08T00:45:37.450Z,101420.25
2023-05-08T00:46:01.170Z,101417.53
2023-05-08T00:46:23.103Z,101417.47
2023-05-08T00:46:47.531Z,101423.66
2023-05-08T00:47:09.298Z,101424.56
2023-05-08T00:47:32.201Z,101417.47
2023-05-08T00:47:54.108Z,101406.16
2023-05-08T00:48:16.729Z,101423.69
2023-05-08T00:48:39.747Z,101418.56
2023-05-08T00:49:01.501Z,101423.09
2023-05-08T00:49:23.758Z,101412.44
2023-05-08T00:49:46.691Z,101421.28
2023-05-08T00:50:10.013Z,101421.38
2023-05-08T00:50:32.671Z,101418.69
2023-05-08T00:50:55.552Z,101424.94
2023-05-08T00:51:18.891Z,101418.56
2023-05-08T00:51:41.155Z,101422.13
2023-05-08T00:52:04.620Z,101419.63
2023-05-08T00:52:28.479Z,101422.31
2023-05-08T00:52:50.475Z,101416.16
2023-05-08T00:53:13.560Z,101418.75
2023-05-08T00:53:40.878Z,101425.09
2023-05-08T00:54:03.127Z,101418.94
2023-05-08T00:54:27.345Z,101418.84
2023-05-08T00:54:49.555Z,101416.41
2023-05-08T00:55:11.789Z,101421.63
2023-05-08T00:55:35.060Z,101424.22
2023-05-08T00:55:58.286Z,101418.75
2023-05-08T00:56:20.944Z,101420.56
2023-05-08T00:56:43.769Z,101428.66
2023-05-08T00:57:07.084Z,101430.47
2023-05-08T00:57:32.456Z,101421.53
2023-05-08T00:57:54.165Z,101425.09
2023-05-08T00:58:15.939Z,101416.06
2023-05-08T00:58:39.912Z,101419.72
2023-05-08T00:59:01.780Z,101418.06
2023-05-08T00:59:26.907Z,101396.06
2023-05-08T00:59:50.035Z,101410.25
2023-05-08T01:00:13.041Z,101419.72
2023-05-08T01:00:36.468Z,101412.84
2023-05-08T01:01:00.375Z,101420.03
2023-05-08T01:01:22.686Z,101427.09
2023-05-08T01:01:45.529Z,101418.06
2023-05-08T01:02:08.652Z,101422.66
2023-05-08T01:02:33.636Z,101418.41
2023-05-08T01:02:55.498Z,101415.72
2023-05-08T01:03:17.812Z,101417.28
2023-05-08T01:03:40.276Z,101422.84
2023-05-08T01:04:04.000Z,101420.91
2023-05-08T01:04:26.986Z,101420.91
2023-05-08T01:04:48.688Z,101417.47
2023-05-08T01:05:11.681Z,101421.19
2023-05-08T01:05:34.651Z,101425.69
2023-05-08T01:05:57.459Z,101426.47
2023-05-08T01:06:19.408Z,101425.00
2023-05-08T01:06:41.102Z,101424.13
2023-05-08T01:07:03.215Z,101414.56
2023-05-08T01:07:26.166Z,101420.50
2023-05-08T01:07:48.162Z,101419.69
2023-05-08T01:08:10.612Z,101425.94
2023-05-08T01:08:32.644Z,101418.75
2023-05-08T01:08:55.738Z,101419.53
2023-05-08T01:09:17.433Z,101416.94
2023-05-08T01:09:39.691Z,101418.66
2023-05-08T01:10:02.080Z,101414.16
2023-05-08T01:10:24.465Z,101416.84
2023-05-08T01:11:02.709Z,101416.84
2023-05-08T01:11:29.470Z,101419.53
2023-05-08T01:11:58.232Z,101418.31
2023-05-08T01:12:27.351Z,101421.88
2023-05-08T01:13:03.537Z,101419.88
2023-05-08T01:13:35.522Z,101420.75
2023-05-08T01:14:08.077Z,101416.25
2023-05-08T01:14:36.230Z,101419.81
2023-05-08T01:15:06.345Z,101414.50
2023-05-08T01:15:36.077Z,101413.69
2023-05-08T01:16:07.824Z,101413.81
2023-05-08T01:16:37.562Z,101420.06
2023-05-08T01:17:13.174Z,101412.94
2023-05-08T01:17:50.469Z,101413.81
2023-05-08T01:18:17.485Z,101405.97
2023-05-08T01:18:45.853Z,101414.75
2023-05-08T01:19:28.640Z,101414.69
2023-05-08T01:20:05.960Z,101412.75
2023-05-08T01:20:37.295Z,101421.69
2023-05-08T01:21:08.254Z,101421.69
2023-05-08T01:21:43.273Z,101414.69
2023-05-08T01:22:32.802Z,101422.81
2023-05-08T01:23:16.249Z,101417.94
2023-05-08T01:24:30.787Z,101419.59
2023-05-08T01:25:17.553Z,101426.03
2023-05-08T01:26:07.515Z,101426.78
2023-05-08T01:27:06.274Z,101426.78
2023-05-08T01:28:01.158Z,101428.53
2023-05-08T01:28:45.355Z,101422.28
2023-05-08T01:29:43.938Z,101423.16
2023-05-08T01:30:19.670Z,101419.69
2023-05-08T01:31:03.966Z,101419.69
2023-05-08T01:31:39.709Z,101422.28
2023-05-08T01:32:12.467Z,101428.63
2023-05-08T01:32:37.407Z,101419.69
2023-05-08T01:33:05.601Z,101424.97
2023-05-08T01:33:33.643Z,101419.59
2023-05-08T01:34:03.948Z,101421.34
2023-05-08T01:34:32.139Z,101424.97
2023-05-08T01:35:03.827Z,101419.44
2023-05-08T01:35:33.653Z,101421.16
2023-05-08T01:36:01.069Z,101430.97
2023-05-08T01:36:29.167Z,101417.09
2023-05-08T01:36:54.887Z,101427.41
2023-05-08T01:37:24.114Z,101429.22
2023-05-08T01:37:51.730Z,101430.28
2023-05-08T01:38:22.593Z,101423.34
2023-05-08T01:38:54.854Z,101430.22
2023-05-08T01:39:20.676Z,101429.41
2023-05-08T01:39:47.120Z,101429.41
2023-05-08T01:40:15.261Z,101430.28
2023-05-08T01:40:44.772Z,101426.66
2023-05-08T01:41:10.625Z,101432.91
2023-05-08T01:41:37.821Z,101424.72
2023-05-08T01:42:05.061Z,101423.00
2023-05-08T01:42:35.870Z,101422.22
2023-05-08T01:43:07.263Z,101425.69
2023-05-08T01:43:36.886Z,101427.59
2023-05-08T01:44:10.679Z,101428.63
2023-05-08T01:44:38.866Z,101423.22
2023-05-08T01:45:03.368Z,101428.88
2023-05-08T01:45:30.582Z,101427.84
2023-05-08T01:45:54.478Z,101427.91
2023-05-08T01:46:20.773Z,101409.59
2023-05-08T01:46:45.457Z,101425.41
2023-05-08T01:47:11.379Z,101429.06
2023-05-08T01:47:36.056Z,101424.88
2023-05-08T01:48:06.088Z,101431.75
2023-05-08T01:48:32.490Z,101430.00
2023-05-08T01:49:00.506Z,101423.75
2023-05-08T01:49:27.251Z,101433.75
2023-05-08T01:49:56.400Z,101434.59
2023-05-08T01:50:22.229Z,101435.44
2023-05-08T01:50:46.733Z,101443.53
2023-05-08T01:51:18.004Z,101430.94
2023-05-08T01:51:46.271Z,101437.38
2023-05-08T01:52:18.568Z,101440.81
2023-05-08T01:52:46.375Z,101440.00
2023-05-08T01:53:12.840Z,101432.88
2023-05-08T01:53:39.185Z,101436.50
2023-05-08T01:54:05.936Z,101440.81
2023-05-08T01:54:35.208Z,101430.56
2023-05-08T01:55:01.703Z,101440.81
2023-05-08T01:55:27.494Z,101444.31
2023-05-08T01:55:57.565Z,101448.84
2023-05-08T01:56:22.955Z,101440.94
2023-05-08T01:56:48.171Z,101443.44
2023-05-08T01:57:12.209Z,101440.75
2023-05-08T01:57:38.083Z,101447.00
2023-05-08T01:58:01.323Z,101444.16
2023-05-08T01:58:25.525Z,101446.00
2023-05-08T01:58:51.477Z,101447.00
2023-05-08T01:59:17.951Z,101441.63
2023-05-08T01:59:42.946Z,101447.81
2023-05-08T02:00:08.050Z,101441.00
2023-05-08T02:00:32.634Z,101446.22
2023-05-08T02:00:56.362Z,101446.22
2023-05-08T02:01:20.537Z,101443.63
2023-05-08T02:01:43.654Z,101452.47
2023-05-08T02:02:06.956Z,101448.06
2023-05-08T02:02:32.009Z,101441.69
2023-05-08T02:02:57.102Z,101446.31
2023-05-08T02:03:21.888Z,101449.00
2023-05-08T02:03:46.159Z,101444.66
2023-05-08T02:04:09.948Z,101446.47
2023-05-08T02:04:35.631Z,101451.00
2023-05-08T02:05:04.701Z,101447.44
2023-05-08T02:05:28.389Z,101447.44
2023-05-08T02:05:51.357Z,101450.22
2023-05-08T02:06:18.913Z,101450.03
2023-05-08T02:06:41.548Z,101451.78
2023-05-08T02:07:03.595Z,101450.03
2023-05-08T02:07:26.611Z,101449.00
2023-05-08T02:07:50.350Z,101453.34
2023-05-08T02:08:15.928Z,101450.75
2023-05-08T02:08:37.801Z,101449.88
2023-05-08T02:09:00.739Z,101447.25
2023-05-08T02:09:25.832Z,101440.31
2023-05-08T02:09:49.408Z,101445.53
2023-05-08T02:10:13.932Z,101431.63
2023-05-08T02:10:37.507Z,101444.75
2023-05-08T02:11:01.893Z,101450.22
2023-05-08T02:11:26.290Z,101448.47
2023-05-08T02:11:49.409Z,101447.59
2023-05-08T02:12:14.680Z,101448.47
2023-05-08T02:12:37.844Z,101452.09
2023-05-08T02:13:02.412Z,101448.47
2023-05-08T02:13:27.527Z,101448.47
2023-05-08T02:13:51.236Z,101441.50
2023-05-08T02:14:14.744Z,101445.16
2023-05-08T02:14:38.560Z,101448.53
2023-05-08T02:15:02.650Z,101447.69
2023-05-08T02:15:25.878Z,101439.84
2023-05-08T02:15:49.197Z,101447.44
2023-05-08T02:16:13.507Z,101447.50
2023-05-08T02:16:37.301Z,101445.78
2023-05-08T02:17:01.186Z,101444.91
2023-05-08T02:17:24.486Z,101447.59
2023-05-08T02:17:50.050Z,101449.34
2023-05-08T02:18:13.000Z,101454.97
2023-05-08T02:18:35.889Z,101453.84
2023-05-08T02:19:01.187Z,101451.41
2023-05-08T02:19:25.518Z,101446.81
2023-05-08T02:19:49.489Z,101454.88
2023-05-08T02:20:15.152Z,101452.53
2023-05-08T02:20:39.982Z,101450.84
2023-05-08T02:21:05.451Z,101449.84
2023-05-08T02:21:28.734Z,101450.69
2023-05-08T02:21:51.774Z,101454.34
2023-05-08T02:22:15.948Z,101455.22
2023-05-08T02:22:38.116Z,101449.91
2023-05-08T02:23:02.086Z,101447.28
2023-05-08T02:23:26.004Z,101454.25
2023-05-08T02:23:49.782Z,101454.16
2023-05-08T02:24:13.491Z,101447.84
2023-05-08T02:24:36.859Z,101455.84
2023-05-08T02:24:58.811Z,101453.16
2023-05-08T02:25:21.683Z,101452.09
2023-05-08T02:25:45.695Z,101458.34
2023-05-08T02:26:09.543Z,101455.59
2023-05-08T02:26:32.840Z,101440.81
2023-05-08T02:26:57.409Z,101450.28
2023-05-08T02:27:22.174Z,101454.78
2023-05-08T02:27:48.192Z,101446.81
2023-05-08T02:28:10.791Z,101448.63
2023-05-08T02:28:33.596Z,101445.16
2023-05-08T02:28:56.072Z,101451.22
2023-05-08T02:29:19.611Z,101449.34
2023-05-08T02:29:42.266Z,101446.88
2023-05-08T02:30:06.563Z,101450.38
2023-05-08T02:30:29.438Z,101441.59
2023-05-08T02:30:53.524Z,101448.53
2023-05-08T02:31:16.687Z,101452.03
2023-05-08T02:31:39.698Z,101440.97
2023-05-08T02:32:02.392Z,101454.16
2023-05-08T02:32:25.659Z,101448.78
2023-05-08T02:32:53.387Z,101447.84
2023-05-08T02:33:17.713Z,101449.66
2023-05-08T02:33:41.642Z,101448.78
2023-05-08T02:34:05.274Z,101448.72
2023-05-08T02:34:29.023Z,101443.56
2023-05-08T02:35:02.553Z,101446.59
2023-05-08T02:35:27.995Z,101457.28
2023-05-08T02:35:50.866Z,101458.16
2023-05-08T02:36:17.671Z,101453.63
2023-05-08T02:36:40.665Z,101443.16
2023-05-08T02:37:03.291Z,101445.72
2023-05-08T02:37:27.413Z,101449.13
2023-05-08T02:37:53.656Z,101459.16
2023-05-08T02:38:17.944Z,101451.03
2023-05-08T02:38:44.052Z,101456.53
2023-05-08T02:39:07.557Z,101458.25
2023-05-08T02:39:33.298Z,101457.34
2023-05-08T02:39:57.771Z,101453.94
2023-05-08T02:40:22.257Z,101450.53
2023-05-08T02:40:47.315Z,101453.94
2023-05-08T02:41:11.985Z,101454.00
2023-05-08T02:41:34.145Z,101453.06
2023-05-08T02:41:56.088Z,101456.69
2023-05-08T02:42:18.673Z,101456.69
2023-05-08T02:42:40.553Z,101459.31
2023-05-08T02:43:03.610Z,101463.75
2023-05-08T02:43:25.430Z,101459.22
2023-05-08T02:43:47.108Z,101458.22
2023-05-08T02:44:09.995Z,101461.94
2023-05-08T02:44:32.615Z,101463.59
2023-05-08T02:44:55.193Z,101460.03
2023-05-08T02:45:17.017Z,101455.56
2023-05-08T02:45:45.767Z,101459.16
2023-05-08T02:46:15.581Z,101464.47
2023-05-08T02:46:47.898Z,101461.94
2023-05-08T02:47:16.911Z,101469.13
2023-05-08T02:47:59.975Z,101460.03
2023-05-08T02:48:33.257Z,101463.53
2023-05-08T02:48:58.820Z,101460.72
2023-05-08T02:49:28.836Z,101457.41
2023-05-08T02:49:54.521Z,101462.47
2023-05-08T02:50:20.433Z,101461.59
2023-05-08T02:50:48.014Z,101444.81
2023-05-08T02:51:18.448Z,101468.72
2023-05-08T02:51:50.089Z,101463.22
2023-05-08T02:52:17.117Z,101463.22
2023-05-08T02:52:44.762Z,101466.75
2023-05-08T02:53:12.497Z,101465.03
2023-05-08T02:53:38.813Z,101464.06
2023-05-08T02:54:09.219Z,101468.59
2023-05-08T02:54:36.773Z,101465.09
2023-05-08T02:55:02.380Z,101472.22
2023-05-08T02:55:36.294Z,101463.53
2023-05-08T02:56:08.094Z,101457.97
2023-05-08T02:56:38.049Z,101465.28
2023-05-08T02:57:07.373Z,101473.16
2023-05-08T02:57:39.591Z,101461.47
2023-05-08T02:58:11.434Z,101460.59
2023-05-08T02:58:41.110Z,101450.53
2023-05-08T02:59:13.970Z,101459.03
2023-05-08T02:59:39.414Z,101463.53
2023-05-08T03:00:06.216Z,101466.13
2023-05-08T03:00:32.449Z,101464.28
2023-05-08T03:01:00.531Z,101458.22
2023-05-08T03:01:27.439Z,101459.16
2023-05-08T03:01:57.683Z,101458.16
2023-05-08T03:02:28.522Z,101459.22
2023-05-08T03:02:55.432Z,101463.63
2023-05-08T03:03:23.867Z,101452.09
2023-05-08T03:03:57.879Z,101453.63
2023-05-08T03:04:26.218Z,101478.63
2023-05-08T03:04:53.778Z,101460.72
2023-05-08T03:05:20.638Z,101467.84
2023-05-08T03:05:48.477Z,101464.28
2023-05-08T03:06:19.566Z,101460.72
2023-05-08T03:06:46.266Z,101455.56
2023-05-08T03:07:08.834Z,101462.78
2023-05-08T03:07:32.783Z,101458.16
2023-05-08T03:07:59.764Z,101458.25
2023-05-08T03:08:29.128Z,101461.84
2023-05-08T03:08:52.520Z,101457.34
2023-05-08T03:09:19.086Z,101467.16
2023-05-08T03:09:45.355Z,101461.78
2023-05-08T03:10:13.133Z,101455.53
2023-05-08T03:10:39.700Z,101461.78
2023-05-08T03:11:04.188Z,101460.03
2023-05-08T03:11:33.641Z,101453.06
2023-05-08T03:12:04.053Z,101459.47
2023-05-08T03:12:29.313Z,101460.19
2023-05-08T03:12:56.047Z,101456.53
2023-05-08T03:13:21.770Z,101454.09
2023-05-08T03:13:46.992Z,101469.00
2023-05-08T03:14:12.499Z,101467.31
2023-05-08T03:14:41.541Z,101462.88
2023-05-08T03:15:07.757Z,101462.88
2023-05-08T03:15:38.156Z,101459.31
2023-05-08T03:16:02.988Z,101453.22
2023-05-08T03:16:28.957Z,101460.31
2023-05-08T03:16:52.318Z,101456.94
2023-05-08T03:17:17.185Z,101451.41
2023-05-08T03:17:40.875Z,101454.94
2023-05-08T03:18:08.904Z,101465.69
2023-05-08T03:18:34.092Z,101454.88
2023-05-08T03:19:01.234Z,101452.25
2023-05-08T03:19:29.031Z,101465.56
2023-05-08T03:19:55.075Z,101445.31
2023-05-08T03:20:19.722Z,101453.38
2023-05-08T03:20:46.301Z,101438.59
2023-05-08T03:21:09.335Z,101453.94
2023-05-08T03:21:32.274Z,101459.31
2023-05-08T03:21:56.366Z,101462.94
2023-05-08T03:22:22.209Z,101460.41
2023-05-08T03:22:48.150Z,101457.34
2023-05-08T03:23:11.711Z,101461.94
2023-05-08T03:23:37.024Z,101466.31
2023-05-08T03:24:02.334Z,101456.47
2023-05-08T03:24:26.757Z,101454.72
2023-05-08T03:24:49.518Z,101462.78
2023-05-08T03:25:14.035Z,101453.22
2023-05-08T03:25:39.855Z,101468.19
2023-05-08T03:26:04.451Z,101467.38
2023-05-08T03:26:26.512Z,101468.25
2023-05-08T03:26:48.420Z,101450.59
2023-05-08T03:27:10.996Z,101467.31
2023-05-08T03:27:33.484Z,101440.34
2023-05-08T03:27:58.180Z,101462.00
2023-05-08T03:28:21.422Z,101461.13
2023-05-08T03:28:44.315Z,101464.75
2023-05-08T03:29:06.697Z,101463.81
2023-05-08T03:29:30.452Z,101453.06
2023-05-08T03:29:53.912Z,101470.94
2023-05-08T03:30:17.896Z,101455.03
2023-05-08T03:30:48.126Z,101464.69
2023-05-08T03:31:12.651Z,101464.84
2023-05-08T03:31:35.455Z,101464.84
2023-05-08T03:31:58.542Z,101470.94
2023-05-08T03:32:22.141Z,101474.56
2023-05-08T03:32:47.209Z,101467.44
2023-05-08T03:33:09.535Z,101464.94
2023-05-08T03:33:32.884Z,101465.88
2023-05-08T03:33:57.243Z,101470.38
2023-05-08T03:34:22.561Z,101465.88
2023-05-08T03:34:44.986Z,101450.41
2023-05-08T03:35:09.260Z,101473.13
2023-05-08T03:35:31.788Z,101464.31
2023-05-08T03:35:55.208Z,101459.78
2023-05-08T03:36:18.685Z,101465.19
2023-05-08T03:36:40.648Z,101470.44
2023-05-08T03:37:02.425Z,101467.13
2023-05-08T03:37:26.349Z,101474.13
2023-05-08T03:37:49.279Z,101465.19
2023-05-08T03:38:12.280Z,101466.03
2023-05-08T03:38:34.976Z,101460.81
2023-05-08T03:38:56.705Z,101466.13
2023-05-08T03:39:20.192Z,101466.03
2023-05-08T03:39:42.187Z,101464.44
2023-05-08T03:40:06.505Z,101471.31
2023-05-08T03:40:28.270Z,101473.13
2023-05-08T03:40:51.094Z,101467.00
2023-05-08T03:41:13.266Z,101471.50
2023-05-08T03:41:34.975Z,101470.63
2023-05-08T03:41:57.068Z,101467.94
2023-05-08T03:42:21.480Z,101477.81
2023-05-08T03:42:45.082Z,101465.31
2023-05-08T03:43:07.537Z,101473.47
2023-05-08T03:43:31.428Z,101469.91
2023-05-08T03:43:53.945Z,101462.72
2023-05-08T03:44:17.934Z,101468.88
2023-05-08T03:44:39.726Z,101454.16
2023-05-08T03:45:03.318Z,101467.22
2023-05-08T03:45:25.698Z,101467.13
2023-05-08T03:45:48.880Z,101466.19
2023-05-08T03:46:12.430Z,101458.91
2023-05-08T03:46:35.759Z,101467.00
2023-05-08T03:46:58.626Z,101468.72
2023-05-08T03:47:22.755Z,101467.88
2023-05-08T03:47:44.772Z,101464.31
2023-05-08T03:48:08.184Z,101443.66
2023-05-08T03:48:32.374Z,101476.25
2023-05-08T03:48:54.806Z,101464.44
2023-05-08T03:49:19.708Z,101463.59
2023-05-08T03:49:41.636Z,101466.19
2023-05-08T03:50:04.345Z,101460.72
2023-05-08T03:50:26.336Z,101458.22
2023-05-08T03:50:50.038Z,101463.59
2023-05-08T03:51:12.238Z,101461.75
2023-05-08T03:51:37.209Z,101457.50
2023-05-08T03:51:59.214Z,101459.22
2023-05-08T03:52:21.042Z,101462.16
2023-05-08T03:52:44.405Z,101458.47
2023-05-08T03:53:06.100Z,101465.78
2023-05-08T03:53:29.216Z,101460.28
2023-05-08T03:53:52.310Z,101458.38
2023-05-08T03:54:14.141Z,101459.31
2023-05-08T03:54:35.813Z,101453.94
2023-05-08T03:54:57.473Z,101456.72
2023-05-08T03:55:20.177Z,101454.91
2023-05-08T03:55:42.140Z,101463.03
2023-05-08T03:56:05.045Z,101451.41
2023-05-08T03:56:28.646Z,101460.34
2023-05-08T03:56:51.290Z,101461.22
2023-05-08T03:57:13.070Z,101447.06
2023-05-08T03:57:40.767Z,101452.28
2023-05-08T03:58:09.350Z,101459.47
2023-05-08T03:58:37.197Z,101450.53
2023-05-08T03:59:10.772Z,101448.72
2023-05-08T03:59:43.209Z,101446.09
2023-05-08T04:00:13.267Z,101443.41
2023-05-08T04:00:44.355Z,101452.28
2023-05-08T04:01:11.820Z,101444.38
2023-05-08T04:01:41.050Z,101448.72
2023-05-08T04:02:17.520Z,101446.03
2023-05-08T04:02:47.161Z,101446.97
2023-05-08T04:03:22.743Z,101447.78
2023-05-08T04:03:55.217Z,101453.16
2023-05-08T04:04:24.750Z,101448.78
2023-05-08T04:04:51.697Z,101457.66
2023-05-08T04:05:21.433Z,101446.91
2023-05-08T04:05:50.247Z,101450.47
2023-05-08T04:06:17.602Z,101457.66
2023-05-08T04:06:50.485Z,101450.53
2023-05-08T04:07:24.655Z,101453.41
2023-05-08T04:07:51.894Z,101455.22
2023-05-08T04:08:17.309Z,101457.84
2023-05-08T04:08:44.813Z,101458.66
2023-05-08T04:09:13.234Z,101455.97
2023-05-08T04:09:43.236Z,101460.41
2023-05-08T04:10:11.099Z,101459.53
2023-05-08T04:10:38.984Z,101463.34
2023-05-08T04:11:09.817Z,101463.34
2023-05-08T04:11:36.275Z,101463.28
2023-05-08T04:12:04.722Z,101454.34
2023-05-08T04:12:36.486Z,101465.09
2023-05-08T04:13:07.198Z,101463.28
2023-05-08T04:13:37.911Z,101465.09
2023-05-08T04:14:03.683Z,101461.59
2023-05-08T04:14:30.456Z,101465.09
2023-05-08T04:14:57.559Z,101456.22
2023-05-08T04:15:23.444Z,101464.28
2023-05-08T04:15:52.319Z,101463.34
2023-05-08T04:16:29.148Z,101465.25
2023-05-08T04:16:56.620Z,101459.88
2023-05-08T04:17:28.250Z,101461.59
2023-05-08T04:17:55.537Z,101465.09
2023-05-08T04:18:28.294Z,101465.97
2023-05-08T04:18:58.102Z,101469.59
2023-05-08T04:19:25.039Z,101452.91
2023-05-08T04:19:50.124Z,101454.50
2023-05-08T04:20:17.170Z,101468.34
2023-05-08T04:20:42.453Z,101469.03
2023-05-08T04:21:09.780Z,101466.50
2023-05-08T04:21:36.768Z,101458.44
2023-05-08T04:22:06.138Z,101463.66
2023-05-08T04:22:32.419Z,101462.78
2023-05-08T04:22:55.797Z,101461.06
2023-05-08T04:23:22.966Z,101461.13
2023-05-08T04:23:50.005Z,101460.19
2023-05-08T04:24:14.773Z,101461.06
2023-05-08T04:24:43.076Z,101453.16
2023-05-08T04:25:07.953Z,101471.66
2023-05-08T04:25:33.474Z,101471.66
2023-05-08T04:25:56.625Z,101465.41
2023-05-08T04:26:19.378Z,101466.28
2023-05-08T04:26:44.082Z,101466.59
2023-05-08T04:27:07.102Z,101467.56
2023-05-08T04:27:30.317Z,101465.63
2023-05-08T04:27:53.192Z,101472.69
2023-05-08T04:28:16.092Z,101472.69
2023-05-08T04:28:38.975Z,101467.16
2023-05-08T04:29:00.725Z,101467.16
2023-05-08T04:29:23.493Z,101474.56
2023-05-08T04:29:45.241Z,101473.53
2023-05-08T04:30:09.804Z,101469.50
2023-05-08T04:30:32.027Z,101473.06
2023-05-08T04:30:55.920Z,101470.38
2023-05-08T04:31:19.394Z,101454.56
2023-05-08T04:31:43.398Z,101466.81
2023-05-08T04:32:05.658Z,101473.94
2023-05-08T04:32:30.486Z,101475.63
2023-05-08T04:32:55.089Z,101474.75
2023-05-08T04:33:18.520Z,101472.84
2023-05-08T04:33:40.719Z,101475.53
2023-05-08T04:34:04.318Z,101472.94
2023-05-08T04:34:28.327Z,101476.41
2023-05-08T04:34:50.491Z,101479.88
2023-05-08T04:35:13.397Z,101467.22
2023-05-08T04:35:36.637Z,101475.22
2023-05-08T04:36:01.466Z,101477.97
2023-05-08T04:36:25.461Z,101477.19
2023-05-08T04:36:48.722Z,101470.25
2023-05-08T04:37:24.042Z,101470.31
2023-05-08T04:37:46.713Z,101469.38
2023-05-08T04:38:09.147Z,101472.28
2023-05-08T04:38:31.845Z,101476.63
2023-05-08T04:38:53.966Z,101469.44
2023-05-08T04:39:23.105Z,101474.19
2023-05-08T04:39:46.177Z,101465.19
2023-05-08T04:40:10.792Z,101479.38
2023-05-08T04:40:33.652Z,101474.19
2023-05-08T04:40:57.483Z,101470.63
2023-05-08T04:41:19.588Z,101481.38
2023-05-08T04:41:42.522Z,101473.31
2023-05-08T04:42:05.695Z,101474.34
2023-05-08T04:42:30.713Z,101472.50
2023-05-08T04:42:55.254Z,101472.50
2023-05-08T04:43:18.022Z,101476.94
2023-05-08T04:43:40.688Z,101475.19
2023-05-08T04:44:04.344Z,101480.50
2023-05-08T04:44:26.599Z,101479.56
2023-05-08T04:44:51.072Z,101478.69
2023-05-08T04:45:16.469Z,101469.50
2023-05-08T04:45:39.491Z,101475.41
2023-05-08T04:46:01.497Z,101470.16
2023-05-08T04:46:24.446Z,101476.22
2023-05-08T04:46:47.131Z,101477.09
2023-05-08T04:47:08.808Z,101462.56
2023-05-08T04:47:31.000Z,101478.22
2023-05-08T04:47:52.683Z,101482.72
2023-05-08T04:48:15.473Z,101476.47
2023-05-08T04:48:37.180Z,101473.78
2023-05-08T04:48:59.098Z,101473.13
2023-05-08T04:49:23.067Z,101472.91
2023-05-08T04:49:46.413Z,101476.28
2023-05-08T04:50:09.383Z,101479.63
2023-05-08T04:50:30.994Z,101477.69